Flight Track Log - Related Links

Times and Time Zones

All times are in EDT time to prevent confusion due to time zone crossing. See the DAL4165 flight status page for this flight to view local times or setup timezone preferences in your user account.

Time Position Orientation Groundspeed Altitude Reporting Facility
EDT Latitude Longitude Course Direction KTS MPH feet Rate Location/Type
Fri 07:10:10 PM 35.3561 -97.5942 179° South 156 180 2,800  Level Fort Worth Center
Fri 07:11:11 PM 35.3144 -97.5561 143° Southeast 225 259 4,500 1,721 Climbing Fort Worth Center
Fri 07:12:00 PM 35.3962 -97.1701 85° East  Level FlightAware Approximate
Fri 07:12:19 PM 35.3122 -97.4619 92° East 290 334 6,500  Level Fort Worth Center
Fri 07:13:00 PM 35.4001 -97.0267 90° East  Level FlightAware Approximate
Fri 07:13:19 PM 35.3167 -97.3575 87° East 295 339 8,300  Level Fort Worth Center
Fri 07:14:00 PM 35.4000 -96.8831 90° East  Level FlightAware Approximate
Fri 07:14:19 PM 35.3247 -97.2331 85° East 321 369 11,400  Level Fort Worth Center
Fri 07:15:00 PM 35.4000 -96.7395 90° East  Level FlightAware Approximate
Fri 07:15:19 PM 35.3286 -97.1056 88° East 348 400 12,600  Level Fort Worth Center
Fri 07:16:19 PM 35.3325 -96.9631 88° East 382 440 13,600 1,350 Climbing Fort Worth Center
Fri 07:17:19 PM 35.3381 -96.8131 87° East 417 480 15,300 1,650 Climbing Fort Worth Center
Fri 07:18:19 PM 35.3414 -96.6578 88° East 436 502 16,900 1,550 Climbing Fort Worth Center
Fri 07:19:19 PM 35.3467 -96.5000 88° East 453 521 18,400 1,300 Climbing Fort Worth Center
Fri 07:20:19 PM 35.3494 -96.3369 89° East 464 534 19,500 1,200 Climbing Fort Worth Center
Fri 07:21:19 PM 35.3542 -96.1689 88° East 477 549 20,800 1,350 Climbing Fort Worth Center
Fri 07:22:19 PM 35.3586 -95.9958 88° East 493 567 22,200 1,150 Climbing Fort Worth Center
Fri 07:23:19 PM 35.3653 -95.8428 87° East 498 573 23,100 1,050 Climbing Fort Worth Center
Fri 07:24:19 PM 35.3692 -95.6672 88° East 504 580 24,300 1,237 Climbing Fort Worth Center
Fri 07:26:33 PM 35.3744 -95.2486 89° East 530 610 27,100 1,330 Climbing Memphis Center
Fri 07:27:33 PM 35.3772 -95.0731 89° East 530 610 28,600 1,500 Climbing Memphis Center
Fri 07:28:33 PM 35.3794 -94.8975 89° East 519 597 30,100 1,350 Climbing Memphis Center
Fri 07:29:33 PM 35.3814 -94.7269 89° East 513 590 31,300 1,100 Climbing Memphis Center
Fri 07:30:33 PM 35.3833 -94.5539 89° East 513 590 32,300 850 Climbing Memphis Center
Fri 07:31:33 PM 35.3847 -94.3783 89° East 513 590 33,000 350 Climbing Memphis Center
Fri 07:32:33 PM 35.3817 -94.2153 91° East 518 596 33,000  Level Memphis Center
Fri 07:33:33 PM 35.3706 -94.0339 94° East 523 602 33,000  Level Memphis Center
Fri 07:34:33 PM 35.3569 -93.8525 95° East 529 609 33,000  Level Memphis Center
Fri 07:35:33 PM 35.3450 -93.6739 95° East 535 616 33,000  Level Memphis Center
Fri 07:36:33 PM 35.3308 -93.4978 96° East 530 610 33,000  Level Memphis Center
Fri 07:37:33 PM 35.3186 -93.3164 95° East 530 610 33,000  Level Memphis Center
Fri 07:38:33 PM 35.3061 -93.1381 95° East 523 602 33,000  Level Memphis Center
Fri 07:39:33 PM 35.2911 -92.9619 96° East 523 602 33,000  Level Memphis Center
Fri 07:40:33 PM 35.2781 -92.7758 95° East 523 602 33,000  Level Memphis Center
Fri 07:41:33 PM 35.2569 -92.5744 97° East 530 610 33,000  Level Memphis Center
Fri 07:42:33 PM 35.2433 -92.3936 95° East 537 618 33,000  Level Memphis Center
Fri 07:43:33 PM 35.2272 -92.2178 96° East 537 618 33,000  Level Memphis Center
Fri 07:44:33 PM 35.2131 -92.0369 95° East 537 618 33,000  Level Memphis Center
Fri 07:45:33 PM 35.1967 -91.8589 96° East 537 618 33,000  Level Memphis Center
Fri 07:46:33 PM 35.1797 -91.6806 97° East 537 618 33,000  Level Memphis Center
Fri 07:47:33 PM 35.1650 -91.5025 96° East 537 618 33,000  Level Memphis Center
Fri 07:48:33 PM 35.1517 -91.3450 96° East 524 603 33,000  Level Memphis Center
Fri 07:49:33 PM 35.1383 -91.1644 95° East 523 602 33,000  Level Memphis Center
Fri 07:50:33 PM 35.1164 -90.9714 98° East 523 602 33,000  Level Memphis Center
Fri 07:51:33 PM 35.0983 -90.7961 97° East 523 602 33,000  Level Memphis Center
Fri 07:52:33 PM 35.0781 -90.6183 98° East 523 602 33,000  Level Memphis Center
Fri 07:53:33 PM 35.0344 -90.4458 107° East 518 596 33,000  Level Memphis Center
Fri 07:54:33 PM 34.9886 -90.2761 108° East 524 603 33,000  Level Memphis Center
Fri 07:55:33 PM 34.9403 -90.1089 109° East 524 603 33,000  Level Memphis Center
Fri 07:56:33 PM 34.9086 -89.9392 103° East 519 597 33,000  Level Memphis Center
Fri 07:57:33 PM 34.8847 -89.7519 99° East 527 606 33,000  Level Memphis Center
Fri 07:58:33 PM 34.8714 -89.5875 96° East 540 621 33,000  Level Memphis Center
Fri 07:59:33 PM 34.8431 -89.4133 101° East 540 621 33,000  Level Memphis Center
Fri 08:00:33 PM 34.8019 -89.2267 105° East 526 605 33,000  Level Memphis Center
Fri 08:01:33 PM 34.7419 -89.0681 115° Southeast 520 598 33,000  Level Memphis Center
Fri 08:02:33 PM 34.7233 -88.8917 97° East 515 593 33,000  Level Memphis Center
Fri 08:03:33 PM 34.7128 -88.7200 94° East 509 586 33,000  Level Memphis Center
Fri 08:04:33 PM 34.6997 -88.5433 95° East 523 602 33,000  Level Memphis Center
Fri 08:05:33 PM 34.6892 -88.3922 95° East 513 590 33,000  Level Memphis Center
Fri 08:06:33 PM 34.6781 -88.2206 94° East 513 590 33,000  Level Memphis Center
Fri 08:07:33 PM 34.6639 -88.0214 95° East 533 613 33,000  Level Memphis Center
Fri 08:08:33 PM 34.6503 -87.8503 95° East 517 595 33,000  Level Memphis Center
Fri 08:09:33 PM 34.6361 -87.6764 96° East 512 589 33,000  Level Memphis Center
Fri 08:10:33 PM 34.6219 -87.5103 96° East 512 589 33,000  Level Memphis Center
Fri 08:12:05 PM 34.5853 -87.2456 99° East 526 605 33,000  Level Atlanta Center
Fri 08:13:05 PM 34.5519 -87.0803 104° East 509 586 33,000  Level Atlanta Center
Fri 08:14:05 PM 34.5206 -86.9128 103° East 509 586 33,000 -600 Level Atlanta Center
Fri 08:15:05 PM 34.4886 -86.7481 103° East 509 586 31,800 -1,350 Descending Atlanta Center
Fri 08:16:05 PM 34.4606 -86.6008 103° East 509 586 30,300 -1,650 Descending Atlanta Center
Fri 08:17:05 PM 34.4303 -86.4439 103° East 490 564 28,500 -1,900 Descending Atlanta Center
Fri 08:18:05 PM 34.3978 -86.2869 104° East 479 551 26,500 -1,800 Descending Atlanta Center
Fri 08:19:05 PM 34.3672 -86.1275 103° East 479 551 24,900 -1,250 Descending Atlanta Center
Fri 08:20:05 PM 34.3383 -85.9758 103° East 469 540 24,000 -550 Descending Atlanta Center
Fri 08:21:05 PM 34.3072 -85.8267 104° East 469 540 23,800 -1,200 Descending Atlanta Center
Fri 08:22:05 PM 34.2800 -85.6803 103° East 457 526 21,600 -2,100 Descending Atlanta Center
Fri 08:23:05 PM 34.2506 -85.5317 103° East 451 519 19,600 -1,850 Descending Atlanta Center
Fri 08:24:05 PM 34.2189 -85.3803 104° East 459 528 17,900 -1,850 Descending Atlanta Center
Fri 08:25:05 PM 34.1853 -85.2217 104° East 459 528 15,900 -1,950 Descending Atlanta Center
Fri 08:26:05 PM 34.1447 -85.0906 110° East 431 496 14,000 -1,450 Descending Atlanta Center
Fri 08:27:05 PM 34.0722 -85.0044 135° Southeast 387 445 13,000 -950 Descending Atlanta Center
Fri 08:28:05 PM 33.9975 -84.9533 150° Southeast 316 364 12,100 -1,100 Descending Atlanta Center
Fri 08:29:05 PM 33.9164 -84.9175 160° South 311 358 10,800 -1,150 Descending Atlanta Center
Fri 08:30:05 PM 33.8433 -84.9017 170° South 287 330 9,800 -1,200 Descending Atlanta Center
Fri 08:31:05 PM 33.7789 -84.8961 176° South 258 297 8,400 -1,050 Descending Atlanta Center
Fri 08:32:05 PM 33.7183 -84.8656 157° South 231 266 7,700 -650 Descending Atlanta Center
Fri 08:33:05 PM 33.6603 -84.8300 153° Southeast 231 266 7,100 -458 Descending Atlanta Center
Fri 08:34:16 PM 33.6333 -84.7500 112° Southeast 215 247 6,700 -824 Descending Atlanta TRACON
Fri 08:35:16 PM 33.6333 -84.6833 90° East 197 227 5,300 -1,450 Descending Atlanta TRACON
Fri 08:36:16 PM 33.6333 -84.6167 90° East 191 220 3,800 -1,300 Descending Atlanta TRACON
Fri 08:37:16 PM 33.6333 -84.5500 90° East 182 209 2,700 -1,100 Descending Atlanta TRACON

Login

Don't have an account? Register now (free) for customized features, flight alerts, and more!